createdAt,value
2022-12-09T00:00:41.053Z,986.36
2022-12-09T00:01:40.872Z,986.30
2022-12-09T00:02:40.929Z,986.34
2022-12-09T00:03:41.139Z,986.31
2022-12-09T00:04:41.158Z,986.32
2022-12-09T00:05:41.009Z,986.28
2022-12-09T00:06:40.756Z,986.33
2022-12-09T00:07:41.175Z,986.31
2022-12-09T00:08:41.007Z,986.28
2022-12-09T00:09:40.832Z,986.25
2022-12-09T00:10:40.989Z,986.26
2022-12-09T00:11:40.697Z,986.25
2022-12-09T00:12:40.885Z,986.27
2022-12-09T00:13:40.715Z,986.23
2022-12-09T00:14:40.688Z,986.24
2022-12-09T00:15:40.969Z,986.17
2022-12-09T00:16:40.920Z,986.23
2022-12-09T00:17:40.623Z,986.20
2022-12-09T00:18:40.678Z,986.17
2022-12-09T00:19:40.616Z,986.18
2022-12-09T00:20:40.612Z,986.15
2022-12-09T00:21:40.585Z,986.20
2022-12-09T00:22:40.830Z,986.13
2022-12-09T00:23:40.797Z,986.17
2022-12-09T00:24:40.561Z,986.17
2022-12-09T00:25:40.572Z,986.19
2022-12-09T00:26:40.549Z,986.20
2022-12-09T00:27:40.516Z,986.20
2022-12-09T00:28:40.529Z,986.22
2022-12-09T00:29:40.533Z,986.18
2022-12-09T00:30:40.672Z,986.20
2022-12-09T00:31:40.615Z,986.25
2022-12-09T00:32:40.644Z,986.24
2022-12-09T00:33:40.490Z,986.22
2022-12-09T00:34:40.701Z,986.22
2022-12-09T00:35:40.424Z,986.27
2022-12-09T00:36:40.518Z,986.22
2022-12-09T00:37:40.409Z,986.26
2022-12-09T00:38:40.407Z,986.23
2022-12-09T00:39:40.580Z,986.24
2022-12-09T00:40:40.458Z,986.21
2022-12-09T00:41:40.532Z,986.22
2022-12-09T00:42:40.394Z,986.19
2022-12-09T00:43:40.345Z,986.20
2022-12-09T00:44:40.508Z,986.16
2022-12-09T00:45:40.342Z,986.16
2022-12-09T00:46:40.584Z,986.17
2022-12-09T00:47:40.377Z,986.20
2022-12-09T00:48:40.292Z,986.17
2022-12-09T00:49:40.453Z,986.20
2022-12-09T00:50:40.293Z,986.20
2022-12-09T00:51:40.465Z,986.18
2022-12-09T00:52:40.256Z,986.20
2022-12-09T00:53:40.254Z,986.18
2022-12-09T00:54:40.310Z,986.22
2022-12-09T00:55:40.420Z,986.20
2022-12-09T00:56:40.201Z,986.19
2022-12-09T00:57:40.288Z,986.19
2022-12-09T00:58:40.373Z,986.18
2022-12-09T00:59:40.214Z,986.15
2022-12-09T01:00:40.167Z,986.14
2022-12-09T01:01:40.181Z,986.16
2022-12-09T01:02:40.536Z,986.13
2022-12-09T01:03:40.421Z,986.13
2022-12-09T01:04:40.403Z,986.11
2022-12-09T01:05:40.340Z,986.16
2022-12-09T01:06:40.338Z,986.09
2022-12-09T01:07:40.260Z,986.12
2022-12-09T01:08:40.283Z,986.09
2022-12-09T01:09:40.259Z,986.09
2022-12-09T01:10:40.286Z,986.15
2022-12-09T01:11:40.091Z,986.12
2022-12-09T01:12:40.269Z,986.14
2022-12-09T01:13:40.021Z,986.12
2022-12-09T01:14:40.011Z,986.13
2022-12-09T01:15:40.185Z,986.15
2022-12-09T01:16:40.181Z,986.16
2022-12-09T01:17:40.150Z,986.13
2022-12-09T01:18:40.241Z,986.19
2022-12-09T01:19:39.959Z,986.18
2022-12-09T01:20:39.974Z,986.19
2022-12-09T01:21:39.929Z,986.17
2022-12-09T01:22:40.199Z,986.19
2022-12-09T01:23:39.899Z,986.18
2022-12-09T01:24:39.997Z,986.19
2022-12-09T01:25:40.031Z,986.19
2022-12-09T01:26:39.970Z,986.18
2022-12-09T01:27:40.062Z,986.22
2022-12-09T01:28:40.195Z,986.22
2022-12-09T01:29:39.840Z,986.23
2022-12-09T01:30:40.145Z,986.21
2022-12-09T01:31:40.046Z,986.24
2022-12-09T01:32:40.187Z,986.22
2022-12-09T01:33:39.981Z,986.22
2022-12-09T01:34:39.791Z,986.24
2022-12-09T01:35:39.783Z,986.26
2022-12-09T01:36:39.772Z,986.27
2022-12-09T01:37:39.771Z,986.26
2022-12-09T01:38:40.128Z,986.25
2022-12-09T01:39:39.946Z,986.27
2022-12-09T01:40:39.729Z,986.26
2022-12-09T01:41:39.698Z,986.23
2022-12-09T01:42:39.839Z,986.28
2022-12-09T01:43:39.686Z,986.25
2022-12-09T01:44:39.915Z,986.23
2022-12-09T01:45:39.665Z,986.22
2022-12-09T01:46:40.097Z,986.26
2022-12-09T01:47:39.688Z,986.24
2022-12-09T01:48:39.638Z,986.23
2022-12-09T01:49:39.750Z,986.25
2022-12-09T01:50:39.633Z,986.22
2022-12-09T01:51:39.685Z,986.21
2022-12-09T01:52:39.593Z,986.25
2022-12-09T01:53:39.719Z,986.25
2022-12-09T01:54:39.695Z,986.24
2022-12-09T01:55:39.781Z,986.20
2022-12-09T01:56:39.728Z,986.24
2022-12-09T01:57:39.728Z,986.22
2022-12-09T01:58:39.732Z,986.25
2022-12-09T01:59:39.567Z,986.21
2022-12-09T02:00:39.496Z,986.20
2022-12-09T02:01:39.571Z,986.20
2022-12-09T02:02:40.020Z,986.20
2022-12-09T02:03:39.872Z,986.17
2022-12-09T02:04:39.677Z,986.20
2022-12-09T02:05:39.462Z,986.20
2022-12-09T02:06:39.759Z,986.16
2022-12-09T02:07:39.659Z,986.17
2022-12-09T02:08:39.528Z,986.14
2022-12-09T02:09:39.393Z,986.12
2022-12-09T02:10:39.646Z,986.14
2022-12-09T02:11:39.384Z,986.16
2022-12-09T02:12:39.422Z,986.15
2022-12-09T02:13:39.398Z,986.12
2022-12-09T02:14:39.521Z,986.12
2022-12-09T02:15:39.523Z,986.12
2022-12-09T02:16:39.357Z,986.08
2022-12-09T02:17:39.440Z,986.09
2022-12-09T02:18:39.315Z,986.10
2022-12-09T02:19:39.405Z,986.10
2022-12-09T02:20:39.268Z,986.08
2022-12-09T02:21:39.507Z,986.10
2022-12-09T02:22:39.623Z,986.05
2022-12-09T02:23:39.333Z,986.05
2022-12-09T02:24:39.317Z,985.98
2022-12-09T02:25:39.449Z,986.03
2022-12-09T02:26:39.221Z,985.99
2022-12-09T02:27:39.376Z,985.98
2022-12-09T02:28:39.195Z,985.92
2022-12-09T02:29:39.493Z,985.94
2022-12-09T02:30:39.533Z,985.97
2022-12-09T02:31:39.305Z,985.98
2022-12-09T02:32:39.305Z,985.90
2022-12-09T02:33:39.192Z,985.90
2022-12-09T02:34:39.126Z,985.90
2022-12-09T02:35:39.442Z,985.85
2022-12-09T02:36:39.309Z,985.90
2022-12-09T02:37:39.103Z,985.87
2022-12-09T02:38:39.079Z,985.86
2022-12-09T02:39:39.387Z,985.87
2022-12-09T02:40:39.180Z,985.82
2022-12-09T02:41:39.204Z,985.87
2022-12-09T02:42:39.031Z,985.89
2022-12-09T02:43:41.143Z,985.85
2022-12-09T02:44:39.026Z,985.89
2022-12-09T02:45:39.016Z,985.88
2022-12-09T02:46:39.058Z,985.87
2022-12-09T02:47:39.458Z,985.86
2022-12-09T02:48:39.144Z,985.90
2022-12-09T02:49:38.980Z,985.88
2022-12-09T02:50:39.087Z,985.86
2022-12-09T02:51:39.243Z,985.84
2022-12-09T02:52:38.916Z,985.84
2022-12-09T02:53:38.916Z,985.85
2022-12-09T02:54:39.080Z,985.84
2022-12-09T02:55:39.051Z,985.85
2022-12-09T02:56:39.036Z,985.79
2022-12-09T02:57:38.883Z,985.76
2022-12-09T02:58:38.876Z,985.79
2022-12-09T02:59:38.919Z,985.74
2022-12-09T03:00:38.866Z,985.76
2022-12-09T03:01:39.297Z,985.74
2022-12-09T03:02:38.963Z,985.77
2022-12-09T03:03:39.325Z,985.70
2022-12-09T03:04:39.141Z,985.72
2022-12-09T03:05:38.843Z,985.70
2022-12-09T03:06:39.013Z,985.69
2022-12-09T03:07:39.007Z,985.70
2022-12-09T03:08:38.983Z,985.75
2022-12-09T03:09:39.167Z,985.69
2022-12-09T03:10:38.725Z,985.73
2022-12-09T03:11:39.107Z,985.67
2022-12-09T03:12:39.071Z,985.70
2022-12-09T03:13:38.693Z,985.75
2022-12-09T03:14:38.891Z,985.74
2022-12-09T03:15:38.862Z,985.77
2022-12-09T03:16:38.729Z,985.75
2022-12-09T03:17:39.046Z,985.72
2022-12-09T03:18:38.651Z,985.72
2022-12-09T03:19:38.628Z,985.73
2022-12-09T03:20:38.665Z,985.70
2022-12-09T03:21:38.837Z,985.70
2022-12-09T03:22:38.718Z,985.66
2022-12-09T03:23:38.572Z,985.67
2022-12-09T03:24:38.968Z,985.68
2022-12-09T03:25:38.562Z,985.67
2022-12-09T03:26:38.908Z,985.65
2022-12-09T03:27:38.553Z,985.64
2022-12-09T03:28:38.877Z,985.62
2022-12-09T03:29:38.823Z,985.67
2022-12-09T03:30:38.527Z,985.64
2022-12-09T03:31:38.858Z,985.59
2022-12-09T03:32:38.641Z,985.61
2022-12-09T03:33:38.723Z,985.63
2022-12-09T03:34:38.683Z,985.62
2022-12-09T03:35:38.457Z,985.59
2022-12-09T03:36:38.565Z,985.62
2022-12-09T03:37:38.745Z,985.58
2022-12-09T03:38:38.498Z,985.64
2022-12-09T03:39:38.737Z,985.61
2022-12-09T03:40:38.763Z,985.58
2022-12-09T03:41:38.567Z,985.60
2022-12-09T03:42:38.402Z,985.59
2022-12-09T03:43:38.361Z,985.61
2022-12-09T03:44:38.346Z,985.59
2022-12-09T03:45:38.684Z,985.58
2022-12-09T03:46:38.680Z,985.58
2022-12-09T03:47:38.441Z,985.55
2022-12-09T03:48:38.380Z,985.56
2022-12-09T03:49:38.373Z,985.51
2022-12-09T03:50:38.276Z,985.54
2022-12-09T03:51:38.333Z,985.53
2022-12-09T03:52:38.544Z,985.54
2022-12-09T03:53:38.471Z,985.52
2022-12-09T03:54:38.245Z,985.49
2022-12-09T03:55:38.244Z,985.50
2022-12-09T03:56:38.283Z,985.54
2022-12-09T03:57:38.594Z,985.52
2022-12-09T03:58:38.236Z,985.50
2022-12-09T03:59:38.351Z,985.48
2022-12-09T04:00:38.227Z,985.48
2022-12-09T04:01:38.542Z,985.46
2022-12-09T04:02:38.536Z,985.46
2022-12-09T04:03:38.665Z,985.48
2022-12-09T04:04:38.357Z,985.47
2022-12-09T04:05:38.132Z,985.46
2022-12-09T04:06:38.469Z,985.43
2022-12-09T04:07:38.111Z,985.42
2022-12-09T04:08:38.304Z,985.41
2022-12-09T04:09:38.196Z,985.46
2022-12-09T04:10:38.094Z,985.47
2022-12-09T04:11:38.047Z,985.48
2022-12-09T04:12:38.312Z,985.47
2022-12-09T04:13:38.304Z,985.49
2022-12-09T04:14:38.060Z,985.48
2022-12-09T04:15:38.095Z,985.50
2022-12-09T04:16:38.095Z,985.51
2022-12-09T04:17:38.460Z,985.51
2022-12-09T04:18:38.414Z,985.48
2022-12-09T04:19:38.224Z,985.48
2022-12-09T04:20:38.222Z,985.49
2022-12-09T04:21:38.033Z,985.42
2022-12-09T04:22:38.133Z,985.48
2022-12-09T04:23:42.440Z,985.45
2022-12-09T04:24:38.298Z,985.39
2022-12-09T04:25:38.262Z,985.39
2022-12-09T04:26:38.182Z,985.41
2022-12-09T04:27:37.993Z,985.42
2022-12-09T04:28:37.941Z,985.39
2022-12-09T04:29:37.888Z,985.41
2022-12-09T04:30:37.914Z,985.42
2022-12-09T04:31:38.124Z,985.37
2022-12-09T04:32:38.028Z,985.37
2022-12-09T04:33:38.106Z,985.36
2022-12-09T04:34:37.849Z,985.38
2022-12-09T04:35:37.790Z,985.39
2022-12-09T04:36:37.976Z,985.37
2022-12-09T04:37:37.982Z,985.35
2022-12-09T04:38:37.952Z,985.34
2022-12-09T04:39:37.737Z,985.32
2022-12-09T04:40:37.754Z,985.34
2022-12-09T04:41:37.721Z,985.37
2022-12-09T04:42:37.757Z,985.33
2022-12-09T04:43:37.745Z,985.35
2022-12-09T04:44:37.898Z,985.33
2022-12-09T04:45:37.901Z,985.31
2022-12-09T04:46:37.774Z,985.27
2022-12-09T04:47:37.767Z,985.31
2022-12-09T04:48:38.008Z,985.30
2022-12-09T04:49:37.628Z,985.26
2022-12-09T04:50:37.687Z,985.26
2022-12-09T04:51:40.195Z,985.31
2022-12-09T04:52:37.595Z,985.30
2022-12-09T04:53:37.650Z,985.29
2022-12-09T04:54:37.920Z,985.28
2022-12-09T04:55:37.780Z,985.30
2022-12-09T04:56:37.652Z,985.32
2022-12-09T04:57:37.675Z,985.30
2022-12-09T04:58:37.542Z,985.36
2022-12-09T04:59:37.900Z,985.33
2022-12-09T05:00:37.727Z,985.31
2022-12-09T05:01:37.903Z,985.33
2022-12-09T05:02:37.632Z,985.33
2022-12-09T05:03:37.845Z,985.31
2022-12-09T05:04:37.740Z,985.30
2022-12-09T05:05:37.614Z,985.32
2022-12-09T05:06:37.920Z,985.32
2022-12-09T05:07:37.579Z,985.30
2022-12-09T05:08:37.727Z,985.30
2022-12-09T05:09:37.812Z,985.30
2022-12-09T05:10:37.648Z,985.29
2022-12-09T05:11:37.621Z,985.32
2022-12-09T05:12:37.734Z,985.26
2022-12-09T05:13:37.592Z,985.30
2022-12-09T05:14:37.380Z,985.27
2022-12-09T05:15:37.648Z,985.27
2022-12-09T05:16:37.452Z,985.26
2022-12-09T05:17:37.405Z,985.31
2022-12-09T05:18:37.581Z,985.28
2022-12-09T05:19:37.311Z,985.27
2022-12-09T05:20:37.491Z,985.25
2022-12-09T05:21:37.451Z,985.27
2022-12-09T05:22:37.432Z,985.28
2022-12-09T05:23:37.521Z,985.26
2022-12-09T05:24:37.641Z,985.25
2022-12-09T05:25:37.336Z,985.27
2022-12-09T05:26:37.323Z,985.26
2022-12-09T05:27:37.266Z,985.27
2022-12-09T05:28:37.231Z,985.29
2022-12-09T05:29:37.434Z,985.23
2022-12-09T05:30:37.696Z,985.30
2022-12-09T05:31:37.273Z,985.28
2022-12-09T05:32:37.423Z,985.25
2022-12-09T05:33:37.665Z,985.26
2022-12-09T05:34:37.445Z,985.28
2022-12-09T05:35:47.628Z,985.25
2022-12-09T05:36:37.176Z,985.21
2022-12-09T05:37:37.342Z,985.23
2022-12-09T05:38:37.132Z,985.24
2022-12-09T05:39:37.451Z,985.25
2022-12-09T05:40:37.061Z,985.20
2022-12-09T05:41:37.335Z,985.24
2022-12-09T05:42:41.399Z,985.23
2022-12-09T05:43:37.270Z,985.20
2022-12-09T05:44:37.364Z,985.18
2022-12-09T05:45:37.283Z,985.19
2022-12-09T05:46:37.461Z,985.21
2022-12-09T05:47:37.404Z,985.16
2022-12-09T05:48:37.374Z,985.20
2022-12-09T05:49:37.253Z,985.17
2022-12-09T05:50:37.219Z,985.22
2022-12-09T05:51:37.317Z,985.17
2022-12-09T05:52:37.146Z,985.20
2022-12-09T05:53:37.306Z,985.20
2022-12-09T05:54:37.028Z,985.19
2022-12-09T05:55:37.325Z,985.18
2022-12-09T05:56:37.251Z,985.17
2022-12-09T05:57:37.301Z,985.18
2022-12-09T05:58:36.977Z,985.17
2022-12-09T05:59:37.137Z,985.19
2022-12-09T06:00:37.016Z,985.16
2022-12-09T06:01:37.088Z,985.18
2022-12-09T06:02:37.381Z,985.14
2022-12-09T06:03:37.590Z,985.09
2022-12-09T06:04:37.005Z,985.09
2022-12-09T06:05:37.281Z,985.09
2022-12-09T06:06:37.155Z,985.11
2022-12-09T06:07:37.482Z,985.13
2022-12-09T06:08:37.112Z,985.15
2022-12-09T06:09:37.168Z,985.16
2022-12-09T06:10:37.175Z,985.13
2022-12-09T06:11:36.942Z,985.11
2022-12-09T06:12:37.010Z,985.15
2022-12-09T06:13:36.714Z,985.13
2022-12-09T06:14:37.080Z,985.10
2022-12-09T06:15:36.896Z,985.09
2022-12-09T06:16:36.934Z,985.16
2022-12-09T06:17:37.168Z,985.12
2022-12-09T06:18:36.939Z,985.07
2022-12-09T06:19:36.872Z,985.05
2022-12-09T06:20:37.018Z,985.01
2022-12-09T06:21:37.012Z,985.10
2022-12-09T06:22:36.975Z,985.06
2022-12-09T06:23:36.735Z,985.07
2022-12-09T06:24:36.644Z,985.04
2022-12-09T06:25:36.916Z,985.05
2022-12-09T06:26:36.917Z,985.03
2022-12-09T06:27:36.739Z,985.03
2022-12-09T06:28:36.650Z,985.02
2022-12-09T06:29:36.611Z,985.01
2022-12-09T06:30:36.672Z,984.99
2022-12-09T06:31:36.640Z,985.01
2022-12-09T06:32:36.793Z,985.02
2022-12-09T06:33:54.151Z,984.96
2022-12-09T06:34:36.666Z,984.98
2022-12-09T06:35:37.010Z,985.01
2022-12-09T06:36:36.814Z,984.97
2022-12-09T06:37:36.793Z,984.99
2022-12-09T06:38:36.484Z,984.98
2022-12-09T06:39:36.517Z,984.98
2022-12-09T06:40:36.424Z,984.99
2022-12-09T06:41:36.588Z,984.98
2022-12-09T06:42:36.450Z,984.97
2022-12-09T06:43:36.424Z,984.93
2022-12-09T06:44:36.619Z,984.95
2022-12-09T06:45:36.597Z,984.92
2022-12-09T06:46:36.856Z,984.92
2022-12-09T06:47:36.620Z,984.90
2022-12-09T06:48:36.547Z,984.95
2022-12-09T06:49:36.857Z,984.89
2022-12-09T06:50:36.429Z,984.93
2022-12-09T06:51:36.391Z,984.96
2022-12-09T06:52:36.448Z,984.92
2022-12-09T06:53:36.712Z,984.95
2022-12-09T06:54:36.522Z,984.96
2022-12-09T06:55:36.255Z,984.97
2022-12-09T06:56:36.255Z,984.98
2022-12-09T06:57:36.376Z,984.99
2022-12-09T06:58:36.226Z,984.99
2022-12-09T06:59:36.452Z,985.01
2022-12-09T07:00:36.353Z,984.99
2022-12-09T07:01:36.722Z,985.02
2022-12-09T07:02:37.335Z,985.01
2022-12-09T07:03:36.689Z,984.97
2022-12-09T07:04:36.512Z,985.01
2022-12-09T07:05:36.377Z,985.02
2022-12-09T07:06:36.267Z,984.97
2022-12-09T07:07:36.288Z,985.00
2022-12-09T07:08:36.303Z,985.08
2022-12-09T07:09:36.276Z,985.03
2022-12-09T07:10:36.399Z,985.10
2022-12-09T07:11:36.633Z,985.05
2022-12-09T07:12:36.089Z,985.11
2022-12-09T07:13:36.277Z,985.11
2022-12-09T07:14:36.205Z,985.09
2022-12-09T07:15:36.470Z,985.09
2022-12-09T07:16:36.216Z,985.12
2022-12-09T07:17:36.184Z,985.12
2022-12-09T07:18:36.592Z,985.13
2022-12-09T07:19:36.297Z,985.11
2022-12-09T07:20:36.179Z,985.14
2022-12-09T07:21:36.051Z,985.15
2022-12-09T07:22:36.368Z,985.15
2022-12-09T07:23:35.996Z,985.12
2022-12-09T07:24:36.416Z,985.15
2022-12-09T07:25:36.112Z,985.17
2022-12-09T07:26:35.925Z,985.17
2022-12-09T07:27:36.227Z,985.24
2022-12-09T07:28:35.899Z,985.24
2022-12-09T07:29:35.988Z,985.20
2022-12-09T07:30:36.207Z,985.24
2022-12-09T07:31:36.466Z,985.26
2022-12-09T07:32:36.361Z,985.23
2022-12-09T07:33:35.912Z,985.25
2022-12-09T07:34:35.887Z,985.29
2022-12-09T07:35:36.272Z,985.31
2022-12-09T07:36:36.015Z,985.31
2022-12-09T07:37:36.141Z,985.36
2022-12-09T07:38:35.820Z,985.34
2022-12-09T07:39:36.134Z,985.36
2022-12-09T07:40:35.869Z,985.31
2022-12-09T07:41:36.070Z,985.32
2022-12-09T07:42:36.008Z,985.29
2022-12-09T07:43:36.102Z,985.35
2022-12-09T07:44:35.797Z,985.36
2022-12-09T07:45:35.903Z,985.37
2022-12-09T07:46:35.867Z,985.37
2022-12-09T07:47:35.924Z,985.43
2022-12-09T07:48:36.145Z,985.36
2022-12-09T07:49:35.752Z,985.35
2022-12-09T07:50:35.758Z,985.36
2022-12-09T07:51:35.726Z,985.42
2022-12-09T07:52:35.717Z,985.44
2022-12-09T07:53:35.947Z,985.39
2022-12-09T07:54:35.596Z,985.38
2022-12-09T07:55:35.587Z,985.37
2022-12-09T07:56:35.766Z,985.36
2022-12-09T07:57:37.895Z,985.36
2022-12-09T07:58:35.688Z,985.36
2022-12-09T07:59:35.590Z,985.34
2022-12-09T08:00:35.911Z,985.37
2022-12-09T08:01:35.715Z,985.40
2022-12-09T08:02:35.496Z,985.38
2022-12-09T08:03:35.849Z,985.42
2022-12-09T08:04:36.218Z,985.47
2022-12-09T08:05:35.699Z,985.47
2022-12-09T08:06:35.821Z,985.43
2022-12-09T08:07:40.160Z,985.48
2022-12-09T08:08:35.916Z,985.47
2022-12-09T08:09:35.856Z,985.51
2022-12-09T08:10:35.648Z,985.53
2022-12-09T08:11:35.932Z,985.52
2022-12-09T08:12:35.591Z,985.52
2022-12-09T08:13:35.844Z,985.53
2022-12-09T08:14:35.423Z,985.51
2022-12-09T08:15:35.842Z,985.57
2022-12-09T08:16:35.862Z,985.55
2022-12-09T08:17:35.795Z,985.54
2022-12-09T08:18:35.715Z,985.56
2022-12-09T08:19:35.506Z,985.60
2022-12-09T08:20:35.545Z,985.59
2022-12-09T08:21:35.394Z,985.61
2022-12-09T08:22:35.651Z,985.61
2022-12-09T08:23:35.604Z,985.66
2022-12-09T08:24:35.439Z,985.70
2022-12-09T08:25:35.328Z,985.66
2022-12-09T08:26:35.403Z,985.64
2022-12-09T08:27:35.349Z,985.62
2022-12-09T08:28:35.658Z,985.63
2022-12-09T08:29:35.660Z,985.64
2022-12-09T08:30:35.448Z,985.60
2022-12-09T08:31:40.516Z,985.57
2022-12-09T08:32:35.352Z,985.55
2022-12-09T08:33:35.424Z,985.55
2022-12-09T08:34:35.699Z,985.50
2022-12-09T08:35:35.559Z,985.54
2022-12-09T08:36:35.141Z,985.52
2022-12-09T08:37:35.138Z,985.54
2022-12-09T08:38:35.201Z,985.54
2022-12-09T08:39:35.535Z,985.56
2022-12-09T08:40:35.519Z,985.53
2022-12-09T08:41:36.843Z,985.54
2022-12-09T08:42:35.277Z,985.49
2022-12-09T08:43:35.161Z,985.51
2022-12-09T08:44:35.038Z,985.49
2022-12-09T08:45:35.519Z,985.50
2022-12-09T08:46:35.532Z,985.47
2022-12-09T08:47:35.445Z,985.49
2022-12-09T08:48:35.447Z,985.47
2022-12-09T08:49:35.547Z,985.47
2022-12-09T08:50:35.451Z,985.46
2022-12-09T08:51:35.157Z,985.45
2022-12-09T08:52:40.358Z,985.46
2022-12-09T08:53:35.188Z,985.45
2022-12-09T08:54:35.181Z,985.47
2022-12-09T08:55:34.918Z,985.44
2022-12-09T08:56:35.245Z,985.45
2022-12-09T08:57:35.225Z,985.46
2022-12-09T08:58:34.939Z,985.47
2022-12-09T08:59:37.629Z,985.48
2022-12-09T09:00:35.089Z,985.47
2022-12-09T09:01:35.802Z,985.48
2022-12-09T09:02:35.380Z,985.52
2022-12-09T09:03:35.384Z,985.46
2022-12-09T09:04:35.106Z,985.50
2022-12-09T09:05:35.232Z,985.45
2022-12-09T09:06:35.253Z,985.48
2022-12-09T09:07:34.893Z,985.50
2022-12-09T09:08:35.084Z,985.50
2022-12-09T09:09:34.879Z,985.46
2022-12-09T09:10:35.042Z,985.48
2022-12-09T09:11:35.398Z,985.46
2022-12-09T09:12:40.515Z,985.49
2022-12-09T09:13:34.778Z,985.46
2022-12-09T09:14:34.977Z,985.48
2022-12-09T09:15:35.064Z,985.46
2022-12-09T09:16:34.891Z,985.47
2022-12-09T09:17:34.941Z,985.43
2022-12-09T09:18:35.069Z,985.48
2022-12-09T09:19:35.110Z,985.47
2022-12-09T09:20:35.054Z,985.50
2022-12-09T09:21:34.897Z,985.50
2022-12-09T09:22:34.716Z,985.51
2022-12-09T09:23:34.735Z,985.50
2022-12-09T09:24:34.653Z,985.53
2022-12-09T09:25:35.300Z,985.54
2022-12-09T09:26:35.011Z,985.53
2022-12-09T09:27:34.743Z,985.55
2022-12-09T09:28:34.808Z,985.53
2022-12-09T09:29:34.988Z,985.55
2022-12-09T09:30:34.747Z,985.61
2022-12-09T09:31:34.959Z,985.57
2022-12-09T09:32:34.671Z,985.61
2022-12-09T09:33:34.812Z,985.63
2022-12-09T09:34:34.764Z,985.62
2022-12-09T09:35:34.817Z,985.64
2022-12-09T09:36:34.770Z,985.70
2022-12-09T09:37:34.931Z,985.64
2022-12-09T09:38:34.698Z,985.67
2022-12-09T09:39:34.803Z,985.69
2022-12-09T09:40:34.632Z,985.66
2022-12-09T09:41:34.870Z,985.64
2022-12-09T09:42:34.496Z,985.64
2022-12-09T09:43:34.391Z,985.61
2022-12-09T09:44:34.691Z,985.62
2022-12-09T09:45:34.730Z,985.62
2022-12-09T09:46:34.511Z,985.61
2022-12-09T09:47:38.300Z,985.63
2022-12-09T09:48:34.472Z,985.62
2022-12-09T09:49:34.667Z,985.60
2022-12-09T09:50:34.539Z,985.58
2022-12-09T09:51:34.412Z,985.59
2022-12-09T09:52:34.295Z,985.57
2022-12-09T09:53:34.309Z,985.56
2022-12-09T09:54:34.443Z,985.57
2022-12-09T09:55:34.731Z,985.53
2022-12-09T09:56:34.579Z,985.58
2022-12-09T09:57:34.640Z,985.57
2022-12-09T09:58:34.486Z,985.58
2022-12-09T09:59:34.370Z,985.51
2022-12-09T10:00:34.467Z,985.56
2022-12-09T10:01:34.632Z,985.54
2022-12-09T10:02:34.586Z,985.52
2022-12-09T10:03:34.779Z,985.53
2022-12-09T10:04:34.629Z,985.52
2022-12-09T10:05:34.635Z,985.48
2022-12-09T10:06:34.536Z,985.49
2022-12-09T10:07:34.498Z,985.53
2022-12-09T10:08:34.786Z,985.47
2022-12-09T10:09:34.337Z,985.51
2022-12-09T10:10:34.481Z,985.48
2022-12-09T10:11:34.452Z,985.50
2022-12-09T10:12:34.802Z,985.49
2022-12-09T10:13:34.399Z,985.49
2022-12-09T10:14:34.331Z,985.47
2022-12-09T10:15:34.536Z,985.48
2022-12-09T10:16:34.706Z,985.46
2022-12-09T10:17:34.159Z,985.46
2022-12-09T10:18:34.525Z,985.43
2022-12-09T10:19:34.473Z,985.42
2022-12-09T10:20:34.161Z,985.45
2022-12-09T10:21:34.106Z,985.41
2022-12-09T10:22:34.451Z,985.38
2022-12-09T10:23:34.230Z,985.42
2022-12-09T10:24:39.115Z,985.38
2022-12-09T10:25:34.517Z,985.38
2022-12-09T10:26:34.392Z,985.37
2022-12-09T10:27:34.237Z,985.40
2022-12-09T10:28:33.957Z,985.36
2022-12-09T10:29:34.250Z,985.31
2022-12-09T10:30:41.665Z,985.34
2022-12-09T10:31:34.342Z,985.35
2022-12-09T10:32:34.507Z,985.31
2022-12-09T10:33:34.388Z,985.33
2022-12-09T10:34:34.038Z,985.30
2022-12-09T10:35:34.012Z,985.26
2022-12-09T10:36:36.002Z,985.26
2022-12-09T10:37:33.922Z,985.28
2022-12-09T10:38:34.197Z,985.26
2022-12-09T10:39:34.215Z,985.29
2022-12-09T10:40:33.839Z,985.26
2022-12-09T10:41:33.771Z,985.28
2022-12-09T10:42:35.376Z,985.28
2022-12-09T10:43:33.845Z,985.25
2022-12-09T10:44:34.108Z,985.26
2022-12-09T10:46:08.019Z,985.20
2022-12-09T10:46:34.118Z,985.28
2022-12-09T10:47:34.091Z,985.24
2022-12-09T10:48:34.337Z,985.26
2022-12-09T10:49:34.081Z,985.25
2022-12-09T10:50:34.154Z,985.18
2022-12-09T10:51:34.047Z,985.20
2022-12-09T10:52:33.665Z,985.22
2022-12-09T10:53:33.878Z,985.23
2022-12-09T10:54:33.719Z,985.23
2022-12-09T10:55:33.642Z,985.21
2022-12-09T10:56:34.102Z,985.18
2022-12-09T10:57:34.012Z,985.18
2022-12-09T10:58:33.960Z,985.19
2022-12-09T10:59:34.030Z,985.15
2022-12-09T11:00:35.214Z,985.23
2022-12-09T11:01:33.795Z,985.19
2022-12-09T11:02:33.915Z,985.17
2022-12-09T11:03:33.835Z,985.13
2022-12-09T11:04:33.957Z,985.12
2022-12-09T11:05:33.688Z,985.16
2022-12-09T11:06:34.180Z,985.14
2022-12-09T11:07:33.838Z,985.15
2022-12-09T11:08:34.248Z,985.12
2022-12-09T11:09:33.762Z,985.12
2022-12-09T11:10:33.671Z,985.13
2022-12-09T11:11:33.868Z,985.14
2022-12-09T11:12:40.095Z,985.15
2022-12-09T11:13:33.710Z,985.13
2022-12-09T11:14:33.489Z,985.14
2022-12-09T11:15:33.399Z,985.17
2022-12-09T11:16:34.550Z,985.10
2022-12-09T11:17:33.489Z,985.12
2022-12-09T11:18:33.875Z,985.18
2022-12-09T11:19:33.466Z,985.14
2022-12-09T11:20:33.750Z,985.12
2022-12-09T11:21:33.538Z,985.15
2022-12-09T11:22:33.494Z,985.19
2022-12-09T11:23:33.667Z,985.15
2022-12-09T11:24:33.362Z,985.13
2022-12-09T11:25:33.318Z,985.12
2022-12-09T11:26:33.749Z,985.17
2022-12-09T11:27:33.292Z,985.11
2022-12-09T11:28:33.635Z,985.13
2022-12-09T11:29:33.208Z,985.09
2022-12-09T11:30:33.423Z,985.09
2022-12-09T11:31:34.112Z,985.07
2022-12-09T11:32:33.318Z,985.09
2022-12-09T11:33:33.393Z,985.07
2022-12-09T11:34:33.445Z,985.08
2022-12-09T11:35:33.331Z,985.04
2022-12-09T11:36:35.187Z,985.10
2022-12-09T11:37:33.104Z,985.05
2022-12-09T11:38:33.100Z,985.05
2022-12-09T11:39:33.097Z,985.05
2022-12-09T11:40:33.071Z,985.02
2022-12-09T11:41:33.106Z,985.03
2022-12-09T11:42:33.049Z,985.01
2022-12-09T11:43:33.064Z,985.01
2022-12-09T11:44:33.028Z,985.04
2022-12-09T11:45:33.008Z,985.04
2022-12-09T11:46:33.025Z,985.01
2022-12-09T11:47:50.267Z,985.00
2022-12-09T11:48:38.644Z,984.98
2022-12-09T11:49:33.006Z,984.96
2022-12-09T11:50:33.433Z,984.99
2022-12-09T11:51:32.959Z,984.98
2022-12-09T11:52:32.929Z,984.97
2022-12-09T11:53:32.922Z,984.95
2022-12-09T11:54:32.906Z,984.96
2022-12-09T11:55:32.913Z,984.98
2022-12-09T11:56:32.907Z,985.00
2022-12-09T11:57:32.873Z,984.98
2022-12-09T11:58:32.875Z,984.94
2022-12-09T11:59:37.807Z,984.95
2022-12-09T12:00:32.861Z,984.96
2022-12-09T12:01:32.964Z,984.97
2022-12-09T12:02:32.833Z,985.00
2022-12-09T12:03:32.826Z,984.96
2022-12-09T12:04:32.910Z,984.98
2022-12-09T12:05:32.813Z,984.94
2022-12-09T12:06:32.805Z,984.93
2022-12-09T12:07:32.761Z,984.90
2022-12-09T12:08:32.930Z,984.90
2022-12-09T12:09:32.732Z,984.92
2022-12-09T12:10:32.730Z,984.90
2022-12-09T12:11:32.712Z,984.87
2022-12-09T12:12:32.717Z,984.87
2022-12-09T12:13:32.685Z,984.86
2022-12-09T12:14:32.699Z,984.85
2022-12-09T12:15:32.668Z,984.89
2022-12-09T12:16:39.073Z,984.85
2022-12-09T12:17:32.713Z,984.83
2022-12-09T12:18:32.641Z,984.85
2022-12-09T12:19:32.648Z,984.84
2022-12-09T12:20:32.610Z,984.84
2022-12-09T12:21:32.624Z,984.82
2022-12-09T12:22:32.621Z,984.86
2022-12-09T12:23:32.585Z,984.87
2022-12-09T12:24:32.564Z,984.86
2022-12-09T12:25:32.578Z,984.82
2022-12-09T12:26:32.540Z,984.84
2022-12-09T12:27:32.555Z,984.83
2022-12-09T12:28:32.546Z,984.73